createdAt,value
2023-04-18T00:00:45.050Z,458.45
2023-04-18T00:05:51.178Z,439.85
2023-04-18T00:10:54.085Z,437.80
2023-04-18T00:15:56.767Z,419.80
2023-04-18T00:20:59.396Z,435.42
2023-04-18T00:26:02.841Z,428.20
2023-04-18T00:31:04.898Z,422.85
2023-04-18T00:36:08.306Z,411.67
2023-04-18T00:41:10.861Z,421.35
2023-04-18T00:46:12.953Z,401.27
2023-04-18T00:51:19.926Z,397.35
2023-04-18T00:56:23.827Z,397.05
2023-04-18T01:01:29.938Z,390.50
2023-04-18T01:06:35.598Z,406.92
2023-04-18T01:11:40.462Z,395.20
2023-04-18T01:16:48.798Z,386.33
2023-04-18T01:21:54.618Z,389.77
2023-04-18T01:26:57.229Z,377.30
2023-04-18T01:31:59.242Z,375.10
2023-04-18T01:37:01.163Z,358.38
2023-04-18T01:42:03.094Z,366.80
2023-04-18T01:47:04.905Z,386.95
2023-04-18T01:52:08.326Z,360.23
2023-04-18T01:57:10.380Z,357.83
2023-04-18T02:02:14.139Z,356.33
2023-04-18T02:07:17.187Z,359.52
2023-04-18T02:12:37.732Z,354.15
2023-04-18T02:17:46.121Z,348.33
2023-04-18T02:22:48.043Z,338.45
2023-04-18T02:27:50.070Z,349.30
2023-04-18T02:32:58.791Z,331.67
2023-04-18T02:38:00.704Z,343.63
2023-04-18T02:43:04.670Z,334.40
2023-04-18T02:48:08.260Z,329.52
2023-04-18T02:53:10.478Z,336.48
2023-04-18T02:58:33.645Z,333.48
2023-04-18T03:03:56.729Z,324.83
2023-04-18T03:09:08.851Z,335.27
2023-04-18T03:14:16.039Z,346.57
2023-04-18T03:19:25.050Z,330.43
2023-04-18T03:24:34.249Z,345.73
2023-04-18T03:29:38.576Z,334.97
2023-04-18T03:34:43.950Z,332.40
2023-04-18T03:40:01.452Z,329.93
2023-04-18T03:45:08.472Z,327.47
2023-04-18T03:50:12.018Z,335.57
2023-04-18T03:55:16.192Z,350.57
2023-04-18T04:00:20.800Z,354.67
2023-04-18T04:05:34.543Z,319.80
2023-04-18T04:10:36.438Z,323.67
2023-04-18T04:15:39.565Z,309.48
2023-04-18T04:20:46.014Z,304.35
2023-04-18T04:26:01.328Z,308.95
2023-04-18T04:31:18.801Z,329.33
2023-04-18T04:36:23.054Z,323.60
2023-04-18T04:41:27.806Z,339.23
2023-04-18T04:46:39.452Z,340.50
2023-04-18T04:51:50.746Z,332.53
2023-04-18T04:56:56.415Z,357.93
2023-04-18T05:01:59.049Z,366.30
2023-04-18T05:07:02.050Z,368.67
2023-04-18T05:12:07.963Z,385.33
2023-04-18T05:17:19.991Z,331.10
2023-04-18T05:22:23.379Z,348.08
2023-04-18T05:27:28.929Z,345.55
2023-04-18T05:32:32.215Z,371.05
2023-04-18T05:37:34.204Z,369.83
2023-04-18T05:42:36.497Z,372.03
2023-04-18T05:47:44.266Z,392.17
2023-04-18T05:52:46.868Z,403.50
2023-04-18T05:57:49.006Z,425.53
2023-04-18T06:03:02.066Z,433.23
2023-04-18T06:08:24.386Z,370.87
2023-04-18T06:13:26.281Z,367.50
2023-04-18T06:18:28.110Z,376.40
2023-04-18T06:23:29.899Z,396.30
2023-04-18T06:28:31.748Z,382.42
2023-04-18T06:33:34.062Z,379.55
2023-04-18T06:38:36.713Z,397.93
2023-04-18T06:43:38.537Z,428.00
2023-04-18T06:49:03.938Z,407.43
2023-04-18T06:54:07.403Z,445.73
2023-04-18T06:59:09.902Z,414.33
2023-04-18T07:04:15.064Z,400.50
2023-04-18T07:09:17.565Z,416.03
2023-04-18T07:14:24.551Z,491.23
2023-04-18T07:19:26.431Z,520.10
2023-04-18T07:24:29.123Z,479.17
2023-04-18T07:29:31.470Z,537.67
2023-04-18T07:34:35.727Z,528.47
2023-04-18T07:39:37.529Z,429.57
2023-04-18T07:44:39.980Z,542.37
2023-04-18T07:49:45.130Z,541.37
2023-04-18T07:54:47.013Z,497.33
2023-04-18T07:59:49.257Z,495.42
2023-04-18T08:04:52.447Z,501.17
2023-04-18T08:09:54.501Z,508.33
2023-04-18T08:14:56.750Z,566.73
2023-04-18T08:19:58.794Z,546.87
2023-04-18T08:25:05.547Z,510.63
2023-04-18T08:30:19.226Z,540.67
2023-04-18T08:35:21.835Z,568.10
2023-04-18T08:40:24.495Z,552.53
2023-04-18T08:45:31.181Z,633.97
2023-04-18T08:50:34.097Z,631.72
2023-04-18T08:55:38.545Z,607.87
2023-04-18T09:00:40.679Z,560.60
2023-04-18T09:05:42.566Z,594.73
2023-04-18T09:10:46.816Z,565.78
2023-04-18T09:15:57.620Z,591.40
2023-04-18T09:21:19.058Z,579.67
2023-04-18T09:26:35.142Z,586.72
2023-04-18T09:31:57.292Z,625.93
2023-04-18T09:37:11.647Z,618.47
2023-04-18T09:42:14.201Z,611.47
2023-04-18T09:47:16.624Z,609.63
2023-04-18T09:52:19.959Z,584.17
2023-04-18T09:57:27.883Z,583.55
2023-04-18T10:02:41.774Z,597.17
2023-04-18T10:07:49.430Z,649.23
2023-04-18T10:18:05.280Z,617.85
2023-04-18T10:23:40.768Z,611.65
2023-04-18T10:29:04.247Z,587.03
2023-04-18T10:34:07.416Z,582.97
2023-04-18T10:39:23.494Z,596.92
2023-04-18T10:44:28.047Z,595.95
2023-04-18T10:49:33.563Z,597.67
2023-04-18T10:54:39.204Z,612.15
2023-04-18T10:59:43.966Z,597.63
2023-04-18T11:04:51.398Z,607.38
2023-04-18T11:09:57.459Z,637.63
2023-04-18T11:15:04.842Z,616.33
2023-04-18T11:20:11.126Z,608.08
2023-04-18T11:25:13.871Z,642.67
2023-04-18T11:30:18.544Z,631.07
2023-04-18T11:35:20.887Z,637.03
2023-04-18T11:40:22.840Z,612.83
2023-04-18T11:45:25.750Z,619.90
2023-04-18T11:50:27.736Z,601.65
2023-04-18T11:55:31.344Z,596.57
2023-04-18T12:00:35.434Z,609.70
2023-04-18T12:05:38.481Z,625.53
2023-04-18T12:10:51.814Z,614.95
2023-04-18T12:15:54.993Z,634.80
2023-04-18T12:21:02.344Z,660.13
2023-04-18T12:26:23.728Z,663.80
2023-04-18T12:31:25.766Z,656.15
2023-04-18T12:36:28.853Z,684.03
2023-04-18T12:41:32.297Z,750.80
2023-04-18T12:46:34.439Z,682.47
2023-04-18T12:51:36.279Z,697.78
2023-04-18T12:56:38.673Z,696.00
2023-04-18T13:01:41.041Z,711.53
2023-04-18T13:06:43.912Z,759.17
2023-04-18T13:11:47.739Z,744.53
2023-04-18T13:16:51.614Z,721.72
2023-04-18T13:21:53.460Z,718.60
2023-04-18T13:26:55.298Z,747.42
2023-04-18T13:32:06.209Z,765.77
2023-04-18T13:37:09.068Z,774.83
2023-04-18T13:42:10.943Z,755.85
2023-04-18T13:47:18.778Z,734.10
2023-04-18T13:52:20.987Z,731.55
2023-04-18T13:57:23.437Z,727.25
2023-04-18T14:02:26.755Z,746.67
2023-04-18T14:07:28.737Z,741.53
2023-04-18T14:12:31.350Z,747.03
2023-04-18T14:17:39.266Z,757.70
2023-04-18T14:22:52.369Z,772.20
2023-04-18T14:28:05.531Z,792.23
2023-04-18T14:33:13.578Z,787.80
2023-04-18T14:38:16.278Z,803.20
2023-04-18T14:43:19.139Z,756.33
2023-04-18T14:48:21.571Z,751.20
2023-04-18T14:53:29.609Z,742.95
2023-04-18T14:58:33.304Z,791.97
2023-04-18T15:03:41.122Z,782.30
2023-04-18T15:08:44.431Z,778.03
2023-04-18T15:13:47.585Z,785.75
2023-04-18T15:18:50.288Z,767.90
2023-04-18T15:23:52.237Z,755.72
2023-04-18T15:28:54.590Z,733.53
2023-04-18T15:33:57.956Z,724.35
2023-04-18T15:38:59.858Z,745.00
2023-04-18T15:44:02.729Z,717.83
2023-04-18T15:49:05.171Z,715.50
2023-04-18T15:54:09.957Z,727.70
2023-04-18T15:59:13.766Z,731.85
2023-04-18T16:04:16.755Z,741.10
2023-04-18T16:09:19.805Z,727.38
2023-04-18T16:14:21.603Z,716.53
2023-04-18T16:19:23.534Z,737.38
2023-04-18T16:24:25.718Z,748.20
2023-04-18T16:29:27.634Z,740.95
2023-04-18T16:34:29.526Z,757.30
2023-04-18T16:39:31.610Z,740.92
2023-04-18T16:44:34.946Z,743.65
2023-04-18T16:49:37.526Z,732.70
2023-04-18T16:54:41.064Z,726.67
2023-04-18T16:59:42.913Z,731.55
2023-04-18T17:04:44.777Z,727.30
2023-04-18T17:09:47.021Z,716.67
2023-04-18T17:14:48.878Z,723.38
2023-04-18T17:19:52.062Z,715.10
2023-04-18T17:25:00.031Z,718.72
2023-04-18T17:30:04.365Z,717.88
2023-04-18T17:35:14.787Z,706.85
2023-04-18T17:40:16.776Z,708.10
2023-04-18T17:45:20.508Z,699.45
2023-04-18T17:50:22.335Z,691.85
2023-04-18T17:55:34.008Z,688.67
2023-04-18T18:00:36.184Z,673.13
2023-04-18T18:05:37.997Z,676.17
2023-04-18T18:10:40.052Z,666.45
2023-04-18T18:15:42.066Z,668.60
2023-04-18T18:20:44.369Z,656.17
2023-04-18T18:25:46.475Z,664.80
2023-04-18T18:30:49.001Z,668.10
2023-04-18T18:35:51.045Z,653.58
2023-04-18T18:40:56.163Z,634.30
2023-04-18T18:45:59.139Z,640.05
2023-04-18T18:51:01.449Z,626.80
2023-04-18T18:56:07.564Z,638.85
2023-04-18T19:01:11.512Z,614.72
2023-04-18T19:06:14.832Z,612.90
2023-04-18T19:11:18.467Z,612.67
2023-04-18T19:16:20.428Z,589.65
2023-04-18T19:21:22.948Z,601.78
2023-04-18T19:26:24.920Z,592.85
2023-04-18T19:31:27.383Z,571.38
2023-04-18T19:36:30.838Z,581.15
2023-04-18T19:41:32.641Z,588.03
2023-04-18T19:46:35.721Z,566.47
2023-04-18T19:56:58.808Z,560.27
2023-04-18T20:02:04.097Z,561.92
2023-04-18T20:07:07.674Z,554.37
2023-04-18T20:12:09.569Z,551.38
2023-04-18T20:17:13.373Z,544.67
2023-04-18T20:22:21.445Z,554.67
2023-04-18T20:32:45.816Z,558.10
2023-04-18T20:37:50.233Z,534.08
2023-04-18T20:42:54.489Z,535.10
2023-04-18T20:48:01.441Z,530.63
2023-04-18T20:53:06.589Z,516.47
2023-04-18T20:58:08.405Z,514.92
2023-04-18T21:03:13.200Z,525.97
2023-04-18T21:08:15.586Z,527.80
2023-04-18T21:13:17.434Z,526.85
2023-04-18T21:18:19.482Z,516.33
2023-04-18T21:23:24.880Z,507.75
2023-04-18T21:28:26.668Z,522.53
2023-04-18T21:33:28.546Z,515.58
2023-04-18T21:38:32.999Z,524.33
2023-04-18T21:43:45.542Z,504.58
2023-04-18T21:48:54.696Z,505.48
2023-04-18T21:53:56.545Z,489.60
2023-04-18T21:59:16.777Z,511.60
2023-04-18T22:04:21.278Z,497.98
2023-04-18T22:09:23.230Z,488.60
2023-04-18T22:14:26.072Z,485.45
2023-04-18T22:19:29.442Z,496.95
2023-04-18T22:29:47.533Z,486.55
2023-04-18T22:34:49.767Z,508.02
2023-04-18T22:39:51.852Z,486.83
2023-04-18T22:44:53.692Z,486.90
2023-04-18T22:49:56.296Z,481.52
2023-04-18T22:54:58.110Z,482.23
2023-04-18T23:00:00.544Z,492.02
2023-04-18T23:05:02.546Z,494.58
2023-04-18T23:10:11.311Z,488.58
2023-04-18T23:15:14.108Z,497.80
2023-04-18T23:20:16.645Z,507.27
2023-04-18T23:25:19.518Z,504.70
2023-04-18T23:30:21.379Z,514.22
2023-04-18T23:35:23.627Z,514.75
2023-04-18T23:40:25.666Z,502.88
2023-04-18T23:45:37.422Z,508.33
2023-04-18T23:50:49.496Z,508.75
2023-04-18T23:55:57.066Z,503.27
